San Diego, CA (92101)

4:13 PM PDT on August 24, 2016 (GMT -0700)
Columbia District | | Change Station

Elev 23 ft 32.72 °N, 117.17 °W | Updated 36 seconds ago

Clear
Clear
73.0 °F
Feels Like 77 °F
N
10.3
Wind Variable Wind from NNE
Gusts 12.3 mph

Today
High -- | Low -- °F
--% Chance of Precip.
Yesterday
High -- | Low -- °F
Precip. -- in
Pressure 29.97 in
Visibility 10.0 miles
Clouds Clear
Heat Index 77 °F
Dew Point 56 °F
Humidity 56%
Rainfall 0.00 in
Snow Depth Not available.
6:18 AM 7:22 PM
Waning Gibbous, 52% visible
METAR KSAN 242251Z 32009KT 10SM CLR 23/17 A2997 RMK AO2 SLP147 T02330172
Pressure 29.97 in
Visibility 10.0 miles
Clouds Clear
Heat Index 77 °F
Dew Point 56 °F
Humidity 56%
Rainfall 0.00 in
Snow Depth Not available.
6:18 AM 7:22 PM
Waning Gibbous, 52% visible
METAR KSAN 242251Z 32009KT 10SM CLR 23/17 A2997 RMK AO2 SLP147 T02330172

10-Day Weather Forecast

Almanac

Astronomy

Aug. 24, 2016 Rise Set
Actual Time
Civil Twilight
Nautical Twilight
Astronomical Twilight
Moon
Length of Visible Light
Length of Day
Tomorrow will be .
, % of the Moon is Illuminated

Today's Extremes

State Highs State Lows

Community

WunderPhotos

Upload Photos

1,934,731 photos uploaded!

WunderBlog® & News

Nearby

Air Quality

  Air Quality AQ Index Pollutant
Not available.

Snow Depth

Station Depth Elevation

Earthquake Activity

City Distance Mag. Time & Date
Minimum magnitude displayed is 2.5.

Coastal Water Temperatures

Place Temperature

Stations

Nearby Weather Stations

Station Location Temp. Windchill Dew Point Humidity Wind Precip. Elev Updated Type
                   

Watches & Warnings

There are currently no watches in effect.